Terminal Aerodrome Forecast
Issued by NWS Burlington, VT

Home | Current Version | Previous Version | Text Only | Print | Product List | Glossary On
Versions: 1 2 3 4 5 6 7 8 9 10 11 12 13 14 15 16
720
FTUS41 KBTV 241130
TAFBTV
TAF
KBTV 241130Z 2412/2512 00000KT P6SM BKN150
     FM241300 00000KT P6SM VCSH BKN050
     FM241600 00000KT 4SM -SHRA BR OVC035
     FM242000 00000KT P6SM VCSH OVC025
     FM250000 00000KT P6SM OVC035
     FM250700 17010KT P6SM BKN010=

USA.gov is the U.S. government's official web portal to all federal, state and local government web resources and services.